Time;durP1;ratioP1;P1;durP2;ratioP2;P2;SDS_P1;SDS_P2;PMS_P1;PMS_P2;Temp;Humidity;BMP_temperature;BMP_pressure;BME280_temperature;BME280_humidity;BME280_pressure;Samples;Min_cycle;Max_cycle;Signal;HPM_P1;HPM_P2
2023/04/02 00:01:45;;;;;;;7.05;3.10;;;4.30;99.90;;;;;;5068845;28;20513;-74
2023/04/02 00:04:20;;;;;;;7.90;3.40;;;4.30;99.90;;;;;;5051983;28;20048;-76
2023/04/02 00:07:09;;;;;;;7.05;3.53;;;4.20;99.90;;;;;;5072490;28;20128;-74
2023/04/02 00:09:38;;;;;;;9.18;2.88;;;4.20;99.90;;;;;;5053393;28;20130;-74
2023/04/02 00:12:17;;;;;;;9.55;2.75;;;4.20;99.90;;;;;;5037520;28;20121;-75
2023/04/02 00:14:50;;;;;;;11.57;3.28;;;4.20;99.90;;;;;;5054806;28;20050;-75
2023/04/02 00:17:16;;;;;;;10.73;3.20;;;4.20;99.90;;;;;;5072111;28;20044;-74
2023/04/02 00:19:45;;;;;;;8.20;3.10;;;4.20;99.90;;;;;;5054979;28;20379;-73
2023/04/02 00:22:17;;;;;;;8.68;3.45;;;4.20;99.90;;;;;;5054587;28;20135;-74
2023/04/02 00:24:43;;;;;;;10.77;3.25;;;4.10;99.90;;;;;;5054913;28;20163;-75
2023/04/02 00:27:14;;;;;;;7.75;3.15;;;4.10;99.90;;;;;;5072737;28;20637;-75
2023/04/02 00:29:51;;;;;;;7.45;2.55;;;4.00;99.90;;;;;;5072246;28;20487;-75
2023/04/02 00:32:30;;;;;;;6.57;2.70;;;3.90;99.90;;;;;;5072578;28;20032;-74
2023/04/02 00:34:57;;;;;;;10.90;3.03;;;3.90;99.90;;;;;;5072155;28;20052;-72
2023/04/02 00:37:27;;;;;;;11.02;3.10;;;3.80;99.90;;;;;;5072417;28;20052;-75
2023/04/02 00:40:01;;;;;;;9.40;2.97;;;4.00;99.90;;;;;;5054391;28;20055;-74
2023/04/02 00:42:30;;;;;;;6.97;2.90;;;4.10;99.90;;;;;;5072589;28;20056;-75
2023/04/02 00:44:57;;;;;;;10.82;2.45;;;3.70;99.90;;;;;;5072310;28;20816;-76
2023/04/02 00:47:32;;;;;;;11.18;2.80;;;3.70;99.90;;;;;;5072031;28;20055;-74
2023/04/02 00:50:06;;;;;;;9.23;2.63;;;3.60;99.90;;;;;;5071922;28;20132;-74
2023/04/02 00:52:34;;;;;;;8.52;3.03;;;3.50;99.90;;;;;;5071655;28;20495;-74
2023/04/02 00:55:09;;;;;;;9.10;2.88;;;3.50;99.90;;;;;;5071696;28;20048;-74
2023/04/02 00:57:35;;;;;;;10.80;2.78;;;3.40;99.90;;;;;;5053328;28;20048;-74
2023/04/02 01:00:22;;;;;;;7.18;3.28;;;3.30;99.90;;;;;;5063332;28;20059;-75
2023/04/02 01:03:27;;;;;;;6.78;2.85;;;3.30;99.90;;;;;;5053559;28;20071;-75
2023/04/02 01:06:09;;;;;;;5.72;2.70;;;3.20;99.90;;;;;;5071684;28;20041;-74
2023/04/02 01:09:09;;;;;;;8.93;3.22;;;3.20;99.90;;;;;;5070854;28;20049;-75
2023/04/02 01:11:46;;;;;;;7.05;2.42;;;3.10;99.90;;;;;;5039378;28;20061;-75
2023/04/02 01:14:35;;;;;;;8.90;2.83;;;3.10;99.90;;;;;;5071374;28;20123;-74
2023/04/02 01:17:47;;;;;;;8.70;2.75;;;3.00;99.90;;;;;;5052457;28;20463;-76
2023/04/02 01:20:42;;;;;;;6.68;2.70;;;3.00;99.90;;;;;;5036567;28;20056;-75
2023/04/02 01:23:30;;;;;;;9.10;2.63;;;2.90;99.90;;;;;;5070864;28;20057;-74
2023/04/02 01:26:19;;;;;;;8.20;2.55;;;2.90;99.90;;;;;;5053394;28;20064;-74
2023/04/02 01:29:09;;;;;;;8.35;2.75;;;2.80;99.90;;;;;;5070841;28;20040;-74
2023/04/02 01:31:37;;;;;;;10.18;2.70;;;2.80;99.90;;;;;;5070876;28;20090;-74
2023/04/02 01:34:06;;;;;;;8.55;2.75;;;2.80;99.90;;;;;;5071145;28;20155;-74
2023/04/02 01:36:41;;;;;;;7.50;2.67;;;2.70;99.90;;;;;;5052861;28;20102;-75
2023/04/02 01:39:31;;;;;;;4.97;2.53;;;2.70;99.90;;;;;;5070355;28;20131;-74
2023/04/02 01:42:16;;;;;;;7.55;2.40;;;2.60;99.90;;;;;;5052815;28;20183;-75
2023/04/02 01:44:58;;;;;;;9.02;2.70;;;2.60;99.90;;;;;;5053014;28;20441;-75
2023/04/02 01:47:26;;;;;;;10.15;3.22;;;2.60;99.90;;;;;;5052875;28;20048;-74
2023/04/02 01:49:59;;;;;;;6.95;2.25;;;2.60;99.90;;;;;;5070354;28;20044;-75
2023/04/02 01:52:35;;;;;;;6.68;1.75;;;2.50;99.90;;;;;;5070531;28;20457;-80
2023/04/02 01:55:02;;;;;;;6.18;2.10;;;2.50;99.90;;;;;;5070201;28;20052;-76
2023/04/02 01:57:28;;;;;;;7.60;2.28;;;2.50;99.90;;;;;;5070503;28;20045;-74
2023/04/02 01:59:54;;;;;;;6.95;2.05;;;2.40;99.90;;;;;;5052552;28;20036;-74
2023/04/02 02:02:20;;;;;;;8.13;2.10;;;2.40;99.90;;;;;;5052216;28;20506;-74
2023/04/02 02:04:47;;;;;;;6.63;2.15;;;2.30;99.90;;;;;;5070362;28;20598;-74
2023/04/02 02:07:19;;;;;;;6.75;2.78;;;2.40;99.90;;;;;;5052059;28;20079;-75
2023/04/02 02:09:46;;;;;;;5.65;2.10;;;2.30;99.90;;;;;;5070136;28;20048;-75
2023/04/02 02:12:14;;;;;;;6.25;2.17;;;2.30;99.90;;;;;;5070297;28;20119;-74
2023/04/02 02:14:48;;;;;;;11.82;2.45;;;2.60;99.90;;;;;;5052286;28;20052;-74
2023/04/02 02:17:17;;;;;;;8.35;2.15;;;2.20;99.90;;;;;;5070301;28;20052;-74
2023/04/02 02:19:46;;;;;;;6.38;1.90;;;2.20;99.90;;;;;;5070098;28;20040;-74
2023/04/02 02:22:26;;;;;;;6.47;1.80;;;2.20;99.90;;;;;;5070498;28;20127;-76
2023/04/02 02:24:53;;;;;;;8.05;1.95;;;2.20;99.90;;;;;;5052236;28;20048;-76
2023/04/02 02:27:20;;;;;;;4.43;1.50;;;2.10;99.90;;;;;;5070062;28;20446;-73
2023/04/02 02:29:52;;;;;;;5.90;1.67;;;2.10;99.90;;;;;;5070108;28;20064;-73
2023/04/02 02:32:21;;;;;;;5.40;1.90;;;2.10;99.90;;;;;;5052563;28;20044;-75
2023/04/02 02:35:05;;;;;;;6.90;1.80;;;2.00;99.90;;;;;;5051886;28;20052;-76
2023/04/02 02:37:39;;;;;;;7.00;2.15;;;2.00;99.90;;;;;;5069844;28;20059;-73
2023/04/02 02:40:17;;;;;;;6.33;1.47;;;1.90;99.90;;;;;;5069214;28;20529;-76
2023/04/02 02:42:53;;;;;;;8.70;1.80;;;2.00;99.90;;;;;;5069864;28;20283;-74
2023/04/02 02:45:27;;;;;;;6.53;1.52;;;1.90;99.90;;;;;;5051953;28;20048;-74
2023/04/02 02:47:54;;;;;;;5.00;1.75;;;1.90;99.90;;;;;;5069893;28;20044;-74
2023/04/02 02:50:23;;;;;;;7.25;1.60;;;1.90;99.90;;;;;;5069574;28;20140;-75
2023/04/02 02:52:56;;;;;;;9.48;1.77;;;1.80;99.90;;;;;;5051802;28;20076;-74
2023/04/02 02:55:26;;;;;;;3.53;1.25;;;1.80;99.90;;;;;;5069325;28;20496;-74
2023/04/02 02:58:05;;;;;;;6.63;1.48;;;1.80;99.90;;;;;;5069744;28;20472;-76
2023/04/02 03:00:32;;;;;;;8.00;1.60;;;1.70;99.90;;;;;;5069424;28;20060;-73
2023/04/02 03:02:59;;;;;;;6.88;1.48;;;1.70;99.90;;;;;;5048003;28;20051;-75
2023/04/02 03:05:27;;;;;;;4.45;1.58;;;1.70;99.90;;;;;;5069792;28;20090;-74
2023/04/02 03:07:55;;;;;;;7.88;1.60;;;1.70;99.90;;;;;;5069732;28;20048;-73
2023/04/02 03:10:40;;;;;;;2.88;1.10;;;1.70;99.90;;;;;;5069839;28;20060;-75
2023/04/02 03:13:34;;;;;;;6.03;1.17;;;1.70;99.90;;;;;;5069493;28;20044;-74
2023/04/02 03:16:11;;;;;;;7.63;1.52;;;1.60;99.90;;;;;;5051616;28;20048;-73
2023/04/02 03:19:03;;;;;;;6.85;1.20;;;1.60;99.90;;;;;;5051365;28;20055;-74
2023/04/02 03:21:50;;;;;;;4.82;1.60;;;1.60;99.90;;;;;;5030962;28;20063;-74
2023/04/02 03:24:26;;;;;;;5.05;1.40;;;1.60;99.90;;;;;;5049549;28;20059;-74
2023/04/02 03:26:58;;;;;;;5.57;1.20;;;1.50;99.90;;;;;;5049331;28;20071;-76
2023/04/02 03:29:49;;;;;;;4.18;1.40;;;1.50;99.90;;;;;;5049442;28;20056;-74
2023/04/02 03:32:32;;;;;;;9.45;1.38;;;1.50;99.90;;;;;;5049867;28;20116;-74
2023/04/02 03:35:26;;;;;;;5.00;1.05;;;1.50;99.90;;;;;;5069146;28;20036;-75
2023/04/02 03:38:01;;;;;;;4.25;1.20;;;1.50;99.90;;;;;;5051607;28;20083;-74
2023/04/02 03:41:01;;;;;;;8.65;1.85;;;1.40;99.90;;;;;;5072543;28;20063;-75
2023/04/02 03:43:34;;;;;;;8.32;1.38;;;1.40;99.90;;;;;;5072610;28;20044;-74
2023/04/02 03:46:35;;;;;;;9.07;1.90;;;1.40;99.90;;;;;;5073070;28;20052;-76
2023/04/02 03:49:42;;;;;;;8.90;1.42;;;1.40;99.90;;;;;;5072890;28;20541;-75
2023/04/02 03:52:21;;;;;;;7.35;1.67;;;1.40;99.90;;;;;;5049594;28;20057;-75
2023/04/02 03:54:47;;;;;;;7.30;1.30;;;1.40;99.90;;;;;;5072876;28;20043;-74
2023/04/02 03:57:33;;;;;;;8.65;2.15;;;2.60;99.90;;;;;;5054717;28;20040;-74
2023/04/02 04:00:15;;;;;;;5.20;1.23;;;1.40;99.90;;;;;;5072715;28;20044;-74
2023/04/02 04:02:46;;;;;;;6.38;1.40;;;1.30;99.90;;;;;;5072305;28;20051;-75
2023/04/02 04:05:33;;;;;;;5.95;1.65;;;1.40;99.90;;;;;;5072431;28;20593;-73
2023/04/02 04:08:12;;;;;;;6.20;1.45;;;1.40;99.90;;;;;;5054832;28;20380;-76
2023/04/02 04:10:39;;;;;;;5.85;1.52;;;1.40;99.90;;;;;;5054821;28;20372;-75
2023/04/02 04:13:11;;;;;;;5.25;1.20;;;1.30;99.90;;;;;;5054275;28;20098;-74
2023/04/02 04:16:03;;;;;;;5.13;1.23;;;1.30;99.90;;;;;;5034483;28;20064;-75
2023/04/02 04:18:41;;;;;;;7.22;1.00;;;1.30;99.90;;;;;;5052429;28;20116;-76
2023/04/02 04:21:28;;;;;;;6.28;1.20;;;1.30;99.90;;;;;;5052456;28;20733;-75
2023/04/02 04:23:56;;;;;;;10.25;1.73;;;1.30;99.90;;;;;;5054612;28;20072;-73
2023/04/02 04:26:29;;;;;;;8.00;1.40;;;1.30;99.90;;;;;;5054501;28;20044;-75
2023/04/02 04:29:14;;;;;;;9.05;1.20;;;1.30;99.90;;;;;;5072514;28;20123;-74
2023/04/02 04:31:49;;;;;;;3.73;1.27;;;1.30;99.90;;;;;;5054092;28;20060;-76
2023/04/02 04:34:35;;;;;;;;;;;1.30;99.90;;;;;;5072287;28;20295;-73
2023/04/02 04:37:06;;;;;;;7.97;1.40;;;1.30;99.90;;;;;;5063412;28;19920;-74
2023/04/02 04:40:07;;;;;;;7.53;1.20;;;1.30;99.90;;;;;;5050648;28;20065;-76
2023/04/02 04:42:36;;;;;;;4.63;1.08;;;1.30;99.90;;;;;;4992886;28;20085;-74
2023/04/02 04:45:08;;;;;;;6.18;1.33;;;1.30;99.90;;;;;;4993476;28;20054;-73
2023/04/02 04:47:40;;;;;;;8.55;1.42;;;1.30;99.90;;;;;;5009265;28;20421;-73
2023/04/02 04:50:25;;;;;;;8.57;1.85;;;1.30;99.90;;;;;;4993220;28;20060;-73
2023/04/02 04:52:50;;;;;;;7.95;1.58;;;1.20;99.90;;;;;;4992690;28;20111;-74
2023/04/02 04:55:29;;;;;;;6.97;1.33;;;1.20;99.90;;;;;;5009281;28;20061;-74
2023/04/02 04:58:07;;;;;;;3.83;1.05;;;1.20;99.90;;;;;;4993113;28;20065;-73
2023/04/02 05:00:51;;;;;;;4.93;1.30;;;1.20;99.90;;;;;;5008978;28;20153;-74
2023/04/02 05:03:34;;;;;;;8.65;1.30;;;1.20;99.90;;;;;;5008939;28;20192;-73
2023/04/02 05:06:07;;;;;;;5.50;1.20;;;1.20;99.90;;;;;;5009177;28;20073;-76
2023/04/02 05:08:38;;;;;;;7.18;1.20;;;1.20;99.90;;;;;;4992986;28;20082;-73
2023/04/02 05:11:18;;;;;;;6.47;1.50;;;1.20;99.90;;;;;;5009357;28;20103;-73
2023/04/02 05:13:49;;;;;;;7.28;1.40;;;1.20;99.90;;;;;;5008433;28;20595;-74
2023/04/02 05:16:41;;;;;;;6.68;1.60;;;1.20;99.90;;;;;;5008732;28;20521;-75
2023/04/02 05:19:15;;;;;;;12.00;1.23;;;1.20;99.90;;;;;;5026098;28;20058;-76
2023/04/02 05:21:48;;;;;;;7.38;1.55;;;1.20;99.90;;;;;;5071263;28;20044;-74
2023/04/02 05:24:19;;;;;;;10.27;1.52;;;1.30;99.90;;;;;;5070888;28;20044;-77
2023/04/02 05:26:49;;;;;;;6.43;1.52;;;1.30;99.90;;;;;;5061025;28;20055;-75
2023/04/02 05:29:29;;;;;;;4.72;1.15;;;1.30;99.90;;;;;;5049439;28;20045;-74
2023/04/02 05:32:00;;;;;;;7.32;1.35;;;1.30;99.90;;;;;;5051235;28;20041;-73
2023/04/02 05:34:32;;;;;;;4.82;0.95;;;1.30;99.90;;;;;;5051338;28;20045;-75
2023/04/02 05:36:58;;;;;;;6.82;1.10;;;1.30;99.90;;;;;;5070848;28;20114;-74
2023/04/02 05:39:25;;;;;;;4.65;1.13;;;1.30;99.90;;;;;;5053081;28;20079;-74
2023/04/02 05:42:03;;;;;;;2.75;0.80;;;1.30;99.90;;;;;;5070550;28;20490;-74
2023/04/02 05:44:31;;;;;;;6.57;1.67;;;1.30;99.90;;;;;;5070748;28;20132;-75
2023/04/02 05:47:17;;;;;;;2.92;1.10;;;1.30;99.90;;;;;;5070877;28;20052;-74
2023/04/02 05:49:48;;;;;;;5.60;1.13;;;1.40;99.90;;;;;;5070339;28;20044;-74
2023/04/02 05:52:29;;;;;;;4.68;1.08;;;1.40;99.90;;;;;;5070846;28;20127;-73
2023/04/02 05:55:21;;;;;;;6.65;0.90;;;1.40;99.90;;;;;;5052682;28;20056;-73
2023/04/02 05:57:50;;;;;;;2.95;0.90;;;2.10;99.90;;;;;;5069884;28;20117;-74
2023/04/02 06:00:39;;;;;;;5.88;1.05;;;1.50;99.90;;;;;;5052098;28;20079;-75
2023/04/02 06:03:16;;;;;;;8.23;1.27;;;1.90;99.90;;;;;;5069834;28;20063;-74
2023/04/02 06:05:45;;;;;;;4.35;0.90;;;1.50;99.90;;;;;;5070540;28;20044;-74
2023/04/02 06:08:24;;;;;;;11.02;1.08;;;1.60;99.90;;;;;;5066233;28;20037;-76
2023/04/02 06:11:00;;;;;;;7.65;1.23;;;1.60;99.90;;;;;;5058357;28;20049;-74
2023/04/02 06:13:27;;;;;;;8.93;1.40;;;1.60;99.90;;;;;;5061584;28;20051;-73
2023/04/02 06:15:53;;;;;;;6.40;1.45;;;1.70;99.90;;;;;;5043422;28;20056;-73
2023/04/02 06:18:20;;;;;;;5.00;1.17;;;1.70;99.90;;;;;;5057993;28;20162;-74
2023/04/02 06:20:46;;;;;;;4.03;1.10;;;1.80;99.90;;;;;;5057902;28;20115;-75
2023/04/02 06:23:29;;;;;;;8.15;1.05;;;1.80;99.90;;;;;;5050296;28;20041;-76
2023/04/02 06:26:03;;;;;;;5.90;1.08;;;1.80;99.90;;;;;;5048146;28;20053;-74
2023/04/02 06:28:39;;;;;;;4.38;0.90;;;1.90;99.90;;;;;;5061321;28;20036;-74
2023/04/02 06:31:10;;;;;;;6.55;1.80;;;1.90;99.90;;;;;;5059704;28;20079;-74
2023/04/02 06:33:36;;;;;;;4.35;1.15;;;2.00;99.90;;;;;;5045037;28;20152;-74
2023/04/02 06:36:04;;;;;;;6.40;1.35;;;2.00;99.90;;;;;;5048048;28;20135;-74
2023/04/02 06:38:31;;;;;;;5.13;1.10;;;2.00;99.90;;;;;;5060248;28;20491;-74
2023/04/02 06:41:04;;;;;;;5.70;1.20;;;2.10;99.90;;;;;;5061487;28;20566;-73
2023/04/02 06:44:13;;;;;;;7.53;1.85;;;2.10;99.90;;;;;;5058846;28;20048;-78
2023/04/02 06:46:47;;;;;;;9.30;1.27;;;2.20;99.90;;;;;;4973847;28;20418;-75
2023/04/02 06:49:39;;;;;;;5.15;1.00;;;2.50;99.90;;;;;;4977987;28;20127;-75
2023/04/02 06:52:15;;;;;;;7.05;1.33;;;2.30;99.90;;;;;;4976174;28;20051;-73
2023/04/02 06:54:41;;;;;;;6.28;1.50;;;2.30;99.90;;;;;;4972960;28;20070;-74
2023/04/02 06:57:08;;;;;;;7.40;1.10;;;2.40;99.90;;;;;;4978975;28;20522;-75
2023/04/02 06:59:34;;;;;;;5.38;1.13;;;2.40;99.90;;;;;;4954484;28;20065;-75
2023/04/02 07:02:22;;;;;;;5.93;1.30;;;2.50;99.90;;;;;;4979277;28;20058;-75
2023/04/02 07:04:48;;;;;;;8.30;1.00;;;2.50;99.90;;;;;;4950903;28;20093;-74
2023/04/02 07:07:14;;;;;;;6.38;1.08;;;2.60;99.90;;;;;;4977506;28;20042;-73
2023/04/02 07:09:41;;;;;;;4.57;1.08;;;2.60;99.90;;;;;;4983440;28;20051;-74
2023/04/02 07:12:12;;;;;;;5.88;1.00;;;2.70;99.90;;;;;;4979911;28;20057;-74
2023/04/02 07:14:38;;;;;;;4.97;1.00;;;2.80;99.90;;;;;;4982798;28;20050;-74
2023/04/02 07:17:04;;;;;;;9.32;1.33;;;2.90;99.90;;;;;;4966526;28;20560;-74
2023/04/02 07:19:30;;;;;;;6.32;1.40;;;3.00;99.90;;;;;;4980044;28;20061;-74
2023/04/02 07:21:55;;;;;;;4.75;1.00;;;3.40;99.90;;;;;;5016291;28;20068;-75
2023/04/02 07:24:21;;;;;;;5.22;1.20;;;3.10;99.90;;;;;;5061316;28;20048;-74
2023/04/02 07:26:47;;;;;;;5.22;0.95;;;3.10;99.90;;;;;;5054591;28;20055;-73
2023/04/02 07:29:16;;;;;;;4.40;1.00;;;3.10;99.90;;;;;;5065310;28;20064;-74
2023/04/02 07:31:42;;;;;;;4.57;1.48;;;3.20;99.90;;;;;;5061922;28;20048;-75
2023/04/02 07:34:09;;;;;;;5.25;1.38;;;3.30;99.90;;;;;;5050058;28;20146;-75
2023/04/02 07:36:34;;;;;;;6.18;1.00;;;3.30;99.90;;;;;;5060928;28;20056;-76
2023/04/02 07:39:00;;;;;;;6.60;1.17;;;3.40;99.90;;;;;;5054250;28;20557;-74
2023/04/02 07:41:26;;;;;;;3.60;0.93;;;3.50;99.90;;;;;;5064421;28;20087;-75
2023/04/02 07:43:52;;;;;;;6.60;1.70;;;3.50;99.90;;;;;;5061724;28;20104;-74
2023/04/02 07:46:19;;;;;;;4.30;1.20;;;3.50;99.90;;;;;;5060814;28;20524;-74
2023/04/02 07:48:45;;;;;;;4.20;0.82;;;3.60;99.90;;;;;;5060657;28;20047;-74
2023/04/02 07:51:24;;;;;;;7.15;1.55;;;3.60;99.90;;;;;;5041778;28;20045;-74
2023/04/02 07:53:54;;;;;;;9.38;1.15;;;3.50;99.90;;;;;;5052119;28;20045;-74
2023/04/02 07:56:21;;;;;;;6.05;1.10;;;3.60;99.90;;;;;;5045868;28;20048;-75
2023/04/02 07:58:47;;;;;;;3.92;1.08;;;3.70;99.90;;;;;;5063517;28;20395;-76
2023/04/02 08:01:16;;;;;;;6.75;1.15;;;3.70;99.90;;;;;;5050640;28;20037;-76
2023/04/02 08:03:42;;;;;;;3.22;0.90;;;3.80;99.90;;;;;;5060985;28;20091;-73
2023/04/02 08:06:08;;;;;;;10.73;1.25;;;3.90;99.90;;;;;;5062315;28;20045;-72
2023/04/02 08:08:33;;;;;;;6.97;1.10;;;4.00;99.90;;;;;;5075036;28;20173;-73
2023/04/02 08:10:59;;;;;;;4.68;1.10;;;4.10;99.90;;;;;;5050277;28;20049;-73
2023/04/02 08:13:25;;;;;;;4.82;1.20;;;4.30;99.90;;;;;;5054434;28;20546;-75
2023/04/02 08:15:50;;;;;;;4.07;0.77;;;4.40;99.90;;;;;;5074244;28;20403;-74
2023/04/02 08:18:16;;;;;;;5.20;1.27;;;4.40;99.90;;;;;;5065159;28;20056;-77
2023/04/02 08:20:42;;;;;;;3.88;0.90;;;4.50;99.90;;;;;;5058590;28;20058;-75
2023/04/02 08:23:16;;;;;;;10.02;1.25;;;4.80;99.90;;;;;;5063110;28;20132;-73
2023/04/02 08:25:45;;;;;;;7.63;1.33;;;4.90;99.90;;;;;;5063243;28;20067;-74
2023/04/02 08:28:11;;;;;;;7.30;1.45;;;5.00;99.90;;;;;;5063234;28;20793;-76
2023/04/02 08:30:37;;;;;;;3.55;1.02;;;5.10;99.90;;;;;;5063146;28;20037;-77
2023/04/02 08:33:03;;;;;;;5.65;1.20;;;5.10;99.90;;;;;;5053400;28;20438;-75
2023/04/02 08:35:28;;;;;;;5.18;1.17;;;5.30;99.90;;;;;;5062863;28;20056;-80
2023/04/02 08:37:54;;;;;;;4.15;1.08;;;5.50;99.90;;;;;;5063687;28;20395;-75
2023/04/02 08:40:23;;;;;;;7.90;1.35;;;5.70;99.90;;;;;;5063721;28;20040;-74
2023/04/02 08:43:19;;;;;;;4.40;1.00;;;5.80;99.90;;;;;;5060681;28;20091;-75
2023/04/02 08:45:53;;;;;;;10.05;1.50;;;6.10;99.90;;;;;;5043489;28;20496;-76
2023/04/02 08:48:20;;;;;;;5.95;1.35;;;6.30;99.90;;;;;;5070369;28;20040;-75
2023/04/02 08:50:45;;;;;;;7.45;1.17;;;6.60;99.90;;;;;;5052784;28;20797;-75
2023/04/02 08:53:36;;;;;;;6.88;1.20;;;6.50;99.90;;;;;;5053368;28;20080;-74
2023/04/02 08:56:16;;;;;;;5.53;1.20;;;6.60;99.90;;;;;;4993367;28;20054;-74
2023/04/02 08:58:53;;;;;;;3.97;0.80;;;6.80;99.90;;;;;;4982575;28;20199;-76
2023/04/02 09:01:47;;;;;;;9.07;1.40;;;7.60;99.90;;;;;;4966372;28;20557;-74
2023/04/02 09:04:17;;;;;;;4.43;0.95;;;7.20;99.90;;;;;;4932296;29;20196;-75
2023/04/02 09:06:44;;;;;;;4.88;1.15;;;7.10;99.90;;;;;;4915703;29;20070;-73
2023/04/02 09:09:12;;;;;;;6.45;1.27;;;7.30;99.90;;;;;;4931793;29;20196;-73
2023/04/02 09:11:59;;;;;;;5.95;1.63;;;7.50;99.90;;;;;;4913023;29;20100;-74
2023/04/02 09:14:58;;;;;;;3.85;1.23;;;7.70;99.90;;;;;;4914816;29;20071;-74
2023/04/02 09:17:25;;;;;;;8.38;1.30;;;7.50;99.90;;;;;;4911320;29;20052;-76
2023/04/02 09:19:56;;;;;;;4.60;1.15;;;7.80;99.90;;;;;;4930223;29;20048;-75
2023/04/02 09:22:25;;;;;;;3.47;1.00;;;7.70;99.90;;;;;;4927692;29;20087;-75
2023/04/02 09:24:52;;;;;;;7.03;0.90;;;7.90;99.90;;;;;;4932157;29;20055;-75
2023/04/02 09:27:20;;;;;;;6.13;1.30;;;8.20;99.90;;;;;;4915739;29;20142;-75
2023/04/02 09:29:50;;;;;;;5.88;1.00;;;8.30;99.90;;;;;;4931020;29;20047;-74
2023/04/02 09:32:50;;;;;;;8.38;1.10;;;8.40;99.90;;;;;;4919013;29;20058;-75
2023/04/02 09:35:25;;;;;;;5.50;1.25;;;8.40;99.90;;;;;;4949668;28;20159;-75
2023/04/02 09:38:18;;;;;;;4.57;0.90;;;8.60;99.90;;;;;;4964607;28;20121;-75
2023/04/02 09:40:52;;;;;;;4.65;0.90;;;8.70;99.90;;;;;;4969962;28;20072;-77
2023/04/02 09:43:22;;;;;;;9.35;1.27;;;8.70;99.90;;;;;;5059497;28;20077;-77
2023/04/02 09:46:24;;;;;;;6.38;1.10;;;8.90;99.90;;;;;;5066658;28;20070;-78
2023/04/02 09:48:59;;;;;;;3.55;0.93;;;9.10;99.90;;;;;;5077314;28;20058;-77
2023/04/02 09:51:33;;;;;;;4.07;1.10;;;9.30;99.90;;;;;;5066603;28;20439;-78
2023/04/02 09:54:02;;;;;;;4.63;1.13;;;9.40;99.90;;;;;;5058884;28;20046;-76
2023/04/02 09:56:35;;;;;;;5.15;1.48;;;9.40;99.90;;;;;;5052429;28;20457;-75
2023/04/02 09:59:22;;;;;;;4.75;1.00;;;9.50;99.90;;;;;;5043662;28;20055;-75
2023/04/02 10:02:00;;;;;;;4.40;0.95;;;10.00;99.90;;;;;;5058938;28;20052;-73
2023/04/02 10:04:46;;;;;;;6.75;1.08;;;9.70;99.90;;;;;;5060714;28;20037;-75
2023/04/02 10:07:37;;;;;;;4.20;1.08;;;9.80;99.90;;;;;;5050164;28;20066;-76
2023/04/02 10:10:25;;;;;;;5.65;1.17;;;9.90;99.90;;;;;;5062436;28;20040;-76
2023/04/02 10:13:02;;;;;;;3.72;0.98;;;9.90;99.90;;;;;;5068330;28;20151;-75
2023/04/02 10:15:38;;;;;;;4.32;1.10;;;10.20;99.90;;;;;;5067559;28;20036;-76
2023/04/02 10:18:21;;;;;;;5.03;1.17;;;10.50;99.90;;;;;;5043082;28;20053;-74
2023/04/02 10:20:49;;;;;;;3.25;0.90;;;10.40;99.90;;;;;;5054734;28;20041;-73
2023/04/02 10:23:19;;;;;;;3.25;0.93;;;10.60;99.90;;;;;;5058544;28;20044;-74
2023/04/02 10:25:56;;;;;;;3.70;0.80;;;10.60;99.90;;;;;;5063291;28;20045;-74
2023/04/02 10:28:43;;;;;;;3.92;0.93;;;11.00;99.90;;;;;;5064540;28;20048;-76
2023/04/02 10:31:15;;;;;;;3.60;0.80;;;10.60;99.90;;;;;;5060454;28;20499;-75
2023/04/02 10:33:48;;;;;;;8.57;0.93;;;10.60;99.90;;;;;;5058429;28;20033;-74
2023/04/02 10:36:29;;;;;;;2.67;1.05;;;10.50;99.90;;;;;;5059383;28;20102;-76
2023/04/02 10:39:22;;;;;;;6.00;1.00;;;10.60;99.90;;;;;;5042029;28;20045;-77
2023/04/02 10:41:53;;;;;;;5.00;1.02;;;10.70;99.90;;;;;;5058103;28;20048;-76
2023/04/02 10:44:43;;;;;;;5.55;1.13;;;10.70;99.90;;;;;;5030311;28;20553;-77
2023/04/02 10:47:14;;;;;;;3.28;0.77;;;10.80;99.90;;;;;;5044493;28;20063;-73
2023/04/02 10:50:11;;;;;;;3.35;1.05;;;10.80;99.90;;;;;;5068996;28;20089;-74
2023/04/02 10:52:56;;;;;;;5.18;0.98;;;10.70;99.90;;;;;;4959935;28;20129;-74
2023/04/02 10:55:27;;;;;;;;;;;10.70;99.90;;;;;;4961742;28;20422;-75
2023/04/02 10:57:55;;;;;;;4.35;1.08;;;10.90;99.90;;;;;;4959653;28;20282;-76
2023/04/02 11:00:27;;;;;;;2.33;0.70;;;10.90;99.90;;;;;;4960040;28;20505;-72
2023/04/02 11:03:00;;;;;;;3.28;0.70;;;11.10;99.90;;;;;;4957356;28;20066;-74
2023/04/02 11:05:35;;;;;;;3.60;0.80;;;11.10;99.90;;;;;;4957643;28;20047;-75
2023/04/02 11:08:15;;;;;;;3.08;0.85;;;11.20;99.90;;;;;;4953474;28;20122;-75
2023/04/02 11:10:50;;;;;;;3.33;0.70;;;11.40;99.90;;;;;;4948355;28;20051;-74
2023/04/02 11:13:23;;;;;;;2.55;0.70;;;11.30;99.90;;;;;;4967992;28;20521;-73
2023/04/02 11:15:49;;;;;;;3.05;0.80;;;11.60;99.90;;;;;;4964589;28;20098;-76
2023/04/02 11:18:34;;;;;;;3.45;0.70;;;11.60;99.90;;;;;;4963267;28;20421;-74
2023/04/02 11:21:24;;;;;;;3.05;0.90;;;11.60;99.90;;;;;;4968869;28;20047;-75
2023/04/02 11:23:59;;;;;;;4.05;0.70;;;11.70;99.90;;;;;;4952250;28;20055;-73
2023/04/02 11:26:37;;;;;;;3.30;0.60;;;11.80;99.90;;;;;;4968017;28;20138;-76
2023/04/02 11:29:11;;;;;;;2.97;0.80;;;11.80;99.90;;;;;;4983472;28;20060;-76
2023/04/02 11:31:36;;;;;;;1.70;0.63;;;11.70;99.90;;;;;;5023659;28;20400;-76
2023/04/02 11:34:02;;;;;;;5.78;0.80;;;11.80;99.90;;;;;;5062470;28;20053;-75
2023/04/02 11:36:51;;;;;;;3.38;0.70;;;12.10;99.90;;;;;;5062115;28;20060;-73
2023/04/02 11:39:52;;;;;;;2.65;0.60;;;11.80;99.90;;;;;;5064775;28;20173;-74
2023/04/02 11:42:18;;;;;;;4.63;0.80;;;11.70;99.90;;;;;;5037661;28;20392;-75
2023/04/02 11:44:44;;;;;;;2.30;0.57;;;11.80;99.90;;;;;;5034217;28;20052;-73
2023/04/02 11:47:18;;;;;;;1.73;0.50;;;11.90;99.90;;;;;;5044597;28;20040;-76
2023/04/02 11:50:02;;;;;;;3.13;0.65;;;12.00;99.90;;;;;;5060305;28;20494;-76
2023/04/02 11:52:35;;;;;;;1.60;0.60;;;12.10;99.90;;;;;;5021366;28;20053;-76
2023/04/02 11:55:48;;;;;;;2.17;0.40;;;12.10;99.90;;;;;;5032764;28;20072;-75
2023/04/02 11:58:21;;;;;;;2.80;0.55;;;12.10;99.90;;;;;;5039224;28;20381;-81
2023/04/02 12:01:17;;;;;;;3.70;0.70;;;12.10;99.90;;;;;;5057876;28;20412;-77
2023/04/02 12:03:57;;;;;;;5.03;0.63;;;12.10;99.90;;;;;;5048580;28;20123;-76
2023/04/02 12:06:45;;;;;;;5.15;0.70;;;12.20;99.90;;;;;;5056557;28;20059;-75
2023/04/02 12:09:54;;;;;;;3.33;0.80;;;12.30;99.90;;;;;;5052362;28;20055;-76
2023/04/02 12:12:22;;;;;;;2.55;0.65;;;12.30;99.90;;;;;;5051961;28;20554;-77
2023/04/02 12:14:51;;;;;;;5.30;0.60;;;12.40;99.90;;;;;;5052212;28;20549;-75
2023/04/02 12:17:17;;;;;;;4.30;0.70;;;12.20;99.90;;;;;;5052644;28;20049;-75
2023/04/02 12:20:07;;;;;;;1.85;0.50;;;12.20;99.90;;;;;;5052600;28;20053;-74
2023/04/02 12:22:53;;;;;;;3.72;0.60;;;12.10;99.90;;;;;;5052602;28;20559;-78
2023/04/02 12:25:28;;;;;;;2.15;0.60;;;12.20;99.90;;;;;;5033406;28;20630;-76
2023/04/02 12:28:09;;;;;;;3.30;0.68;;;12.20;99.90;;;;;;5052750;28;20048;-76
2023/04/02 12:30:36;;;;;;;5.18;0.80;;;12.10;99.90;;;;;;5052348;28;20064;-78
2023/04/02 12:33:15;;;;;;;2.70;0.70;;;12.30;99.90;;;;;;5034821;28;20045;-73
2023/04/02 12:35:43;;;;;;;4.40;0.70;;;12.10;99.90;;;;;;5034111;28;20068;-75
2023/04/02 12:38:23;;;;;;;2.17;0.70;;;12.10;99.90;;;;;;5052501;28;20049;-75
2023/04/02 12:41:20;;;;;;;6.05;0.70;;;12.00;99.90;;;;;;5052205;28;20045;-75
2023/04/02 12:43:45;;;;;;;2.60;0.82;;;12.20;99.90;;;;;;5052228;28;20056;-74
2023/04/02 12:46:13;;;;;;;3.53;0.80;;;12.20;99.90;;;;;;5052737;28;20395;-75
2023/04/02 12:48:39;;;;;;;2.90;0.80;;;12.30;99.90;;;;;;5052714;28;20045;-76
2023/04/02 12:51:06;;;;;;;3.92;0.75;;;12.40;99.90;;;;;;5034903;28;20049;-76
2023/04/02 12:53:38;;;;;;;2.67;0.65;;;12.50;99.90;;;;;;5034402;28;20053;-75
2023/04/02 12:56:05;;;;;;;3.28;0.73;;;12.40;99.90;;;;;;5033882;28;20072;-75
2023/04/02 12:58:41;;;;;;;2.83;0.60;;;12.60;99.90;;;;;;5051054;28;20042;-76
2023/04/02 13:01:26;;;;;;;2.40;0.60;;;12.40;99.90;;;;;;5051217;28;20099;-76
2023/04/02 13:04:12;;;;;;;2.65;0.90;;;12.50;99.90;;;;;;5051221;28;20037;-75
2023/04/02 13:06:39;;;;;;;3.13;0.75;;;12.60;99.90;;;;;;5051058;28;20442;-76
2023/04/02 13:09:24;;;;;;;3.28;0.70;;;12.70;99.90;;;;;;5051234;28;20404;-76
2023/04/02 13:11:50;;;;;;;4.50;0.80;;;12.70;99.90;;;;;;5051050;28;20453;-74
2023/04/02 13:14:18;;;;;;;4.00;0.90;;;12.80;99.90;;;;;;5051151;28;20120;-75
2023/04/02 13:16:45;;;;;;;3.92;0.90;;;12.60;99.90;;;;;;5051475;28;20132;-75
2023/04/02 13:19:31;;;;;;;1.92;0.80;;;12.70;99.90;;;;;;5051387;28;20560;-74
2023/04/02 13:22:00;;;;;;;1.23;0.50;;;12.70;99.90;;;;;;5016966;28;20147;-75
2023/04/02 13:24:28;;;;;;;5.13;0.70;;;13.00;99.90;;;;;;5051440;28;20107;-76
2023/04/02 13:26:57;;;;;;;2.35;0.80;;;12.80;99.90;;;;;;5050569;28;20053;-77
2023/04/02 13:29:24;;;;;;;2.53;0.77;;;12.70;99.90;;;;;;5051216;28;20053;-75
2023/04/02 13:31:52;;;;;;;3.58;0.80;;;12.70;99.90;;;;;;5033124;28;20507;-76
2023/04/02 13:34:18;;;;;;;2.80;0.90;;;12.60;99.90;;;;;;5032854;28;20053;-75
2023/04/02 13:36:45;;;;;;;3.17;0.60;;;12.70;99.90;;;;;;5050573;28;20079;-74
2023/04/02 13:39:10;;;;;;;2.83;0.55;;;12.80;99.90;;;;;;5050343;28;20036;-75